createdAt,value
2019-05-29T00:00:49.067Z,100898.97
2019-05-29T00:03:18.633Z,100910.05
2019-05-29T00:05:47.097Z,100913.03
2019-05-29T00:08:15.558Z,100918.55
2019-05-29T00:10:43.969Z,100924.02
2019-05-29T00:13:12.450Z,100920.06
2019-05-29T00:15:40.897Z,100922.67
2019-05-29T00:18:10.373Z,100927.21
2019-05-29T00:20:38.817Z,100929.77
2019-05-29T00:23:08.351Z,100921.36
2019-05-29T00:25:36.791Z,100923.05
2019-05-29T00:28:06.406Z,100934.45
2019-05-29T00:30:35.024Z,100936.19
2019-05-29T00:33:03.476Z,100938.81
2019-05-29T00:35:31.866Z,100937.52
2019-05-29T00:38:00.418Z,100946.05
2019-05-29T00:40:28.883Z,100953.98
2019-05-29T00:42:57.369Z,100953.44
2019-05-29T00:45:25.877Z,100954.63
2019-05-29T00:47:54.268Z,100967.03
2019-05-29T00:50:22.705Z,100959.64
2019-05-29T00:52:51.116Z,100964.27
2019-05-29T00:55:19.548Z,100964.23
2019-05-29T00:57:47.962Z,100960.88
2019-05-29T01:00:17.474Z,100969.34
2019-05-29T01:02:46.283Z,100969.23
2019-05-29T01:05:16.123Z,100971.88
2019-05-29T01:07:44.611Z,100973.46
2019-05-29T01:10:14.620Z,100973.84
2019-05-29T01:12:43.157Z,100977.16
2019-05-29T01:15:13.232Z,100981.31
2019-05-29T01:17:41.735Z,100988.02
2019-05-29T01:20:10.365Z,100990.55
2019-05-29T01:22:38.813Z,100988.02
2019-05-29T01:25:07.841Z,100992.61
2019-05-29T01:27:36.256Z,100992.61
2019-05-29T01:30:06.331Z,100997.45
2019-05-29T01:32:34.748Z,101000.48
2019-05-29T01:35:04.345Z,101008.16
2019-05-29T01:37:32.702Z,101001.31
2019-05-29T01:40:01.136Z,101008.55
2019-05-29T01:42:29.585Z,101006.87
2019-05-29T01:45:07.858Z,101011.16
2019-05-29T01:47:28.101Z,101008.48
2019-05-29T01:49:56.546Z,101011.38
2019-05-29T01:52:24.967Z,101014.14
2019-05-29T01:54:53.383Z,101017.59
2019-05-29T01:57:21.869Z,101020.09
2019-05-29T01:59:50.385Z,101024.77
2019-05-29T02:02:19.881Z,101027.52
2019-05-29T02:04:48.422Z,101031.88
2019-05-29T02:07:17.907Z,101032.98
2019-05-29T02:09:46.537Z,101035.66
2019-05-29T02:12:16.258Z,101035.84
2019-05-29T02:14:44.762Z,101036.28
2019-05-29T02:17:13.323Z,101048.11
2019-05-29T02:19:41.744Z,101047.66
2019-05-29T02:22:10.215Z,101049.64
2019-05-29T02:24:38.617Z,101052.29
2019-05-29T02:27:07.218Z,101051.21
2019-05-29T02:29:35.580Z,101057.33
2019-05-29T02:32:04.085Z,101062.28
2019-05-29T02:34:32.493Z,101057.42
2019-05-29T02:37:01.021Z,101068.22
2019-05-29T02:39:29.693Z,101064.80
2019-05-29T02:41:58.333Z,101070.39
2019-05-29T02:44:27.547Z,101071.47
2019-05-29T02:46:56.345Z,101076.43
2019-05-29T02:49:25.781Z,101079.98
2019-05-29T02:51:54.413Z,101082.95
2019-05-29T02:54:24.726Z,101083.67
2019-05-29T02:56:53.082Z,101085.44
2019-05-29T02:59:23.266Z,101085.44
2019-05-29T03:01:51.929Z,101085.53
2019-05-29T03:04:21.717Z,101080.57
2019-05-29T03:06:50.340Z,101084.77
2019-05-29T03:09:18.889Z,101091.16
2019-05-29T03:11:47.519Z,101090.74
2019-05-29T03:14:15.909Z,101087.26
2019-05-29T03:16:44.330Z,101092.02
2019-05-29T03:19:12.836Z,101086.09
2019-05-29T03:21:41.234Z,101090.95
2019-05-29T03:24:09.712Z,101095.92
2019-05-29T03:26:38.448Z,101090.72
2019-05-29T03:29:07.044Z,101094.92
2019-05-29T03:31:45.565Z,101101.13
2019-05-29T03:34:05.699Z,101109.58
2019-05-29T03:36:41.575Z,101114.30
2019-05-29T03:39:05.541Z,101116.58
2019-05-29T03:41:34.895Z,101124.02
2019-05-29T03:44:03.316Z,101126.75
2019-05-29T03:46:41.088Z,101128.67
2019-05-29T03:49:01.907Z,101132.50
2019-05-29T03:51:32.535Z,101134.19
2019-05-29T03:54:00.522Z,101141.73
2019-05-29T03:56:30.428Z,101140.84
2019-05-29T03:58:59.136Z,101143.09
2019-05-29T04:01:29.184Z,101142.56
2019-05-29T04:03:57.718Z,101148.27
2019-05-29T04:06:26.976Z,101147.33
2019-05-29T04:08:55.517Z,101145.48
2019-05-29T04:11:23.962Z,101146.61
2019-05-29T04:13:52.521Z,101143.61
2019-05-29T04:16:22.631Z,101151.19
2019-05-29T04:18:53.160Z,101153.97
2019-05-29T04:21:22.676Z,101155.66
2019-05-29T04:23:51.544Z,101157.73
2019-05-29T04:26:22.059Z,101160.03
2019-05-29T04:28:50.788Z,101161.47
2019-05-29T04:31:19.207Z,101165.94
2019-05-29T04:33:47.742Z,101165.11
2019-05-29T04:36:16.264Z,101175.84
2019-05-29T04:38:44.718Z,101184.24
2019-05-29T04:41:13.162Z,101191.52
2019-05-29T04:43:41.546Z,101188.67
2019-05-29T04:46:10.053Z,101194.58
2019-05-29T04:48:40.448Z,101200.20
2019-05-29T04:51:08.745Z,101206.21
2019-05-29T04:53:37.823Z,101206.77
2019-05-29T04:56:07.279Z,101207.14
2019-05-29T04:58:36.939Z,101213.60
2019-05-29T05:01:05.423Z,101217.13
2019-05-29T05:03:35.138Z,101223.97
2019-05-29T05:06:03.763Z,101223.17
2019-05-29T05:08:33.250Z,101228.46
2019-05-29T05:11:02.443Z,101229.47
2019-05-29T05:13:31.479Z,101231.39
2019-05-29T05:16:02.073Z,101239.72
2019-05-29T05:18:31.658Z,101237.72
2019-05-29T05:21:00.466Z,101238.20
2019-05-29T05:23:30.066Z,101239.59
2019-05-29T05:25:58.742Z,101243.56
2019-05-29T05:28:27.269Z,101242.80
2019-05-29T05:30:55.611Z,101247.13
2019-05-29T05:33:24.178Z,101243.84
2019-05-29T05:35:52.605Z,101245.77
2019-05-29T05:38:21.009Z,101249.40
2019-05-29T05:40:49.448Z,101251.64
2019-05-29T05:43:24.188Z,101251.73
2019-05-29T05:45:48.077Z,101261.27
2019-05-29T05:48:16.530Z,101260.06
2019-05-29T05:50:44.931Z,101261.40
2019-05-29T05:53:13.344Z,101261.09
2019-05-29T05:55:41.928Z,101265.08
2019-05-29T05:58:10.421Z,101261.82
2019-05-29T06:00:39.918Z,101269.97
2019-05-29T06:03:08.513Z,101272.18
2019-05-29T06:05:38.107Z,101271.83
2019-05-29T06:08:06.683Z,101273.14
2019-05-29T06:10:36.122Z,101280.42
2019-05-29T06:13:04.750Z,101280.45
2019-05-29T06:15:34.305Z,101276.69
2019-05-29T06:18:19.920Z,101292.95
2019-05-29T06:20:33.031Z,101293.47
2019-05-29T06:23:01.506Z,101291.48
2019-05-29T06:25:29.948Z,101296.72
2019-05-29T06:27:58.427Z,101295.18
2019-05-29T06:30:26.990Z,101300.72
2019-05-29T06:32:55.529Z,101301.99
2019-05-29T06:35:23.943Z,101305.13
2019-05-29T06:37:52.378Z,101303.90
2019-05-29T06:40:23.862Z,101307.41
2019-05-29T06:42:52.280Z,101306.19
2019-05-29T06:45:23.764Z,101315.09
2019-05-29T06:47:52.269Z,101316.84
2019-05-29T06:50:20.681Z,101319.47
2019-05-29T06:52:49.096Z,101315.66
2019-05-29T06:55:17.592Z,101316.97
2019-05-29T06:57:46.065Z,101316.63
2019-05-29T07:00:31.796Z,101316.28
2019-05-29T07:02:44.922Z,101322.73
2019-05-29T07:05:13.439Z,101325.36
2019-05-29T07:07:42.491Z,101325.36
2019-05-29T07:10:11.151Z,101319.02
2019-05-29T07:12:40.358Z,101324.55
2019-05-29T07:15:09.317Z,101320.66
2019-05-29T07:17:38.549Z,101325.00
2019-05-29T07:20:07.420Z,101237.69
2019-05-29T07:22:37.011Z,101334.05
2019-05-29T07:25:06.973Z,101338.95
2019-05-29T07:27:36.713Z,101337.73
2019-05-29T07:30:06.890Z,101341.60
2019-05-29T07:32:35.320Z,101340.79
2019-05-29T07:35:04.748Z,101340.38
2019-05-29T07:37:33.206Z,101337.37
2019-05-29T07:40:01.658Z,101342.46
2019-05-29T07:42:30.084Z,101339.06
2019-05-29T07:44:58.470Z,101345.08
2019-05-29T07:47:26.961Z,101338.26
2019-05-29T07:49:55.371Z,101346.02
2019-05-29T07:52:23.849Z,101352.18
2019-05-29T07:54:52.301Z,101350.56
2019-05-29T07:57:20.767Z,101347.30
2019-05-29T07:59:49.260Z,101018.38
2019-05-29T08:02:17.726Z,101177.25
2019-05-29T08:04:47.202Z,101353.84
2019-05-29T08:07:15.695Z,101354.28
2019-05-29T08:09:45.547Z,101354.44
2019-05-29T08:12:14.059Z,101357.45
2019-05-29T08:14:43.673Z,101355.30
2019-05-29T08:17:12.350Z,101352.71
2019-05-29T08:19:58.250Z,101350.59
2019-05-29T08:22:10.924Z,101353.28
2019-05-29T08:24:40.656Z,101359.77
2019-05-29T08:27:09.185Z,101353.94
2019-05-29T08:29:37.672Z,101360.78
2019-05-29T08:32:06.213Z,101354.81
2019-05-29T08:34:34.638Z,101362.09
2019-05-29T08:37:06.938Z,101357.98
2019-05-29T08:39:36.876Z,101362.28
2019-05-29T08:42:21.997Z,101359.43
2019-05-29T08:44:33.960Z,101361.89
2019-05-29T08:47:10.251Z,101360.97
2019-05-29T08:49:32.534Z,101366.64
2019-05-29T08:52:11.875Z,101358.75
2019-05-29T08:54:31.912Z,101363.77
2019-05-29T08:57:00.350Z,101359.34
2019-05-29T08:59:28.771Z,101361.63
2019-05-29T09:01:57.303Z,101371.39
2019-05-29T09:04:25.777Z,101362.87
2019-05-29T09:06:54.237Z,101367.42
2019-05-29T09:09:22.644Z,101363.98
2019-05-29T09:11:51.848Z,101355.61
2019-05-29T09:14:20.402Z,101357.42
2019-05-29T09:16:48.850Z,101351.47
2019-05-29T09:19:18.679Z,101358.51
2019-05-29T09:21:47.407Z,101355.14
2019-05-29T09:24:17.398Z,101360.70
2019-05-29T09:26:46.626Z,101351.56
2019-05-29T09:29:19.988Z,101355.02
2019-05-29T09:31:45.313Z,101352.99
2019-05-29T09:34:15.183Z,101362.34
2019-05-29T09:36:43.949Z,101361.98
2019-05-29T09:39:12.370Z,101362.72
2019-05-29T09:41:40.777Z,101357.96
2019-05-29T09:44:09.206Z,101357.55
2019-05-29T09:46:37.754Z,101358.00
2019-05-29T09:49:06.221Z,101359.41
2019-05-29T09:51:34.636Z,101359.00
2019-05-29T09:54:03.562Z,101358.97
2019-05-29T09:56:32.120Z,101360.88
2019-05-29T09:59:01.840Z,101362.70
2019-05-29T10:01:30.677Z,101354.19
2019-05-29T10:04:01.509Z,101359.75
2019-05-29T10:06:29.288Z,101356.16
2019-05-29T10:08:58.069Z,101359.58
2019-05-29T10:11:26.487Z,101359.91
2019-05-29T10:13:55.710Z,101363.17
2019-05-29T10:16:25.250Z,101362.75
2019-05-29T10:18:54.272Z,101369.78
2019-05-29T10:21:38.672Z,101366.45
2019-05-29T10:23:54.744Z,101364.31
2019-05-29T10:26:24.143Z,101368.20
2019-05-29T10:29:06.746Z,101365.52
2019-05-29T10:31:22.756Z,101361.94
2019-05-29T10:33:52.399Z,101361.89
2019-05-29T10:36:21.354Z,101359.50
2019-05-29T10:38:50.706Z,101362.61
2019-05-29T10:41:19.402Z,101361.98
2019-05-29T10:43:49.062Z,101358.48
2019-05-29T10:46:17.715Z,101361.45
2019-05-29T10:48:49.358Z,101360.48
2019-05-29T10:51:16.322Z,101363.02
2019-05-29T10:53:46.809Z,101351.37
2019-05-29T10:56:14.880Z,101358.61
2019-05-29T10:58:49.554Z,101355.31
2019-05-29T11:01:13.435Z,101360.04
2019-05-29T11:03:41.865Z,101356.31
2019-05-29T11:06:10.284Z,101349.03
2019-05-29T11:08:38.697Z,101350.83
2019-05-29T11:11:07.172Z,101347.00
2019-05-29T11:13:35.577Z,101347.42
2019-05-29T11:16:03.972Z,101349.61
2019-05-29T11:18:32.382Z,101353.94
2019-05-29T11:21:00.825Z,101344.56
2019-05-29T11:23:29.317Z,101352.24
2019-05-29T11:25:58.183Z,101350.93
2019-05-29T11:28:26.729Z,101344.92
2019-05-29T11:30:55.679Z,101344.57
2019-05-29T11:33:25.260Z,101345.44
2019-05-29T11:36:03.283Z,101338.56
2019-05-29T11:38:23.842Z,101338.98
2019-05-29T11:41:15.647Z,101343.30
2019-05-29T11:43:22.505Z,101336.06
2019-05-29T11:45:51.211Z,101337.86
2019-05-29T11:48:19.794Z,101340.50
2019-05-29T11:50:48.200Z,101336.67
2019-05-29T11:53:16.616Z,101337.99
2019-05-29T11:55:45.038Z,101332.84
2019-05-29T11:58:30.088Z,101337.57
2019-05-29T12:00:43.579Z,101334.03
2019-05-29T12:03:12.024Z,101330.84
2019-05-29T12:05:40.485Z,101331.90
2019-05-29T12:08:08.971Z,101327.84
2019-05-29T12:10:37.445Z,101327.55
2019-05-29T12:13:05.931Z,101328.22
2019-05-29T12:15:34.340Z,101321.17
2019-05-29T12:18:20.048Z,101319.18
2019-05-29T12:20:32.924Z,101326.91
2019-05-29T12:23:24.186Z,101323.89
2019-05-29T12:25:31.627Z,101327.61
2019-05-29T12:28:01.342Z,101323.32
2019-05-29T12:30:30.681Z,101325.48
2019-05-29T12:32:59.216Z,101321.83
2019-05-29T12:35:27.616Z,101321.78
2019-05-29T12:37:57.345Z,101319.73
2019-05-29T12:40:25.986Z,101316.19
2019-05-29T12:42:55.665Z,101322.13
2019-05-29T12:45:24.349Z,101318.03
2019-05-29T12:47:54.269Z,101316.61
2019-05-29T12:50:23.212Z,101323.31
2019-05-29T12:52:51.663Z,101321.22
2019-05-29T12:55:20.337Z,101317.01
2019-05-29T12:57:48.757Z,101309.25
2019-05-29T13:00:18.898Z,101307.58
2019-05-29T13:02:47.392Z,101304.16
2019-05-29T13:05:20.442Z,101302.37
2019-05-29T13:07:48.051Z,101306.40
2019-05-29T13:10:29.871Z,101294.91
2019-05-29T13:12:47.568Z,101303.32
2019-05-29T13:15:17.072Z,101308.45
2019-05-29T13:17:45.591Z,101307.59
2019-05-29T13:20:21.642Z,101308.48
2019-05-29T13:22:45.008Z,101303.12
2019-05-29T13:25:13.822Z,101309.64
2019-05-29T13:27:42.323Z,101311.03
2019-05-29T13:30:13.017Z,101302.20
2019-05-29T13:32:42.109Z,101310.89
2019-05-29T13:35:13.021Z,101303.08
2019-05-29T13:37:41.430Z,101302.13
2019-05-29T13:40:10.399Z,101298.00
2019-05-29T13:42:38.979Z,101294.59
2019-05-29T13:45:17.714Z,101300.75
2019-05-29T13:47:38.803Z,101299.37
2019-05-29T13:50:12.015Z,101288.17
2019-05-29T13:52:39.171Z,101290.77
2019-05-29T13:55:08.124Z,101295.90
2019-05-29T13:57:39.501Z,101294.19
2019-05-29T14:02:43.873Z,101299.67
2019-05-29T14:05:12.911Z,101297.84
2019-05-29T14:07:41.417Z,101292.18
2019-05-29T14:10:09.950Z,101292.72
2019-05-29T14:12:38.515Z,101294.17
2019-05-29T14:15:12.420Z,101292.43
2019-05-29T14:17:41.074Z,101289.09
2019-05-29T14:20:09.816Z,101295.08
2019-05-29T14:22:38.419Z,101291.44
2019-05-29T14:25:09.531Z,101292.91
2019-05-29T14:27:38.374Z,101289.69
2019-05-29T14:30:10.338Z,101288.00
2019-05-29T14:32:39.338Z,101286.48
2019-05-29T14:35:09.517Z,101288.59
2019-05-29T14:37:38.426Z,101298.55
2019-05-29T14:40:08.015Z,101294.92
2019-05-29T14:42:36.700Z,101296.17
2019-05-29T14:45:10.354Z,101294.25
2019-05-29T14:47:39.081Z,101298.21
2019-05-29T14:50:10.951Z,101293.26
2019-05-29T14:52:39.710Z,101305.75
2019-05-29T14:55:10.163Z,101295.89
2019-05-29T14:57:38.720Z,101300.17
2019-05-29T15:00:20.977Z,101297.00
2019-05-29T15:02:38.987Z,101296.94
2019-05-29T15:05:07.986Z,101291.42
2019-05-29T15:07:36.362Z,101294.80
2019-05-29T15:10:17.143Z,101293.50
2019-05-29T15:12:38.811Z,101294.19
2019-05-29T15:15:11.032Z,101297.79
2019-05-29T15:17:39.356Z,101298.84
2019-05-29T15:20:09.656Z,101295.81
2019-05-29T15:22:38.417Z,101293.38
2019-05-29T15:25:14.586Z,101292.46
2019-05-29T15:27:38.420Z,101293.53
2019-05-29T15:30:08.761Z,101293.94
2019-05-29T15:32:37.378Z,101296.88
2019-05-29T15:35:12.770Z,101293.46
2019-05-29T15:37:38.196Z,101301.17
2019-05-29T15:40:11.029Z,101298.85
2019-05-29T15:42:39.761Z,101297.21
2019-05-29T15:45:10.090Z,101296.28
2019-05-29T15:47:38.532Z,101295.42
2019-05-29T15:50:09.319Z,101295.06
2019-05-29T15:52:37.975Z,101292.48
2019-05-29T15:55:27.047Z,101293.27
2019-05-29T15:57:39.784Z,101297.03
2019-05-29T16:00:13.898Z,101303.67
2019-05-29T16:02:42.467Z,101298.91
2019-05-29T16:05:13.150Z,101300.70
2019-05-29T16:07:41.789Z,101292.48
2019-05-29T16:10:14.468Z,101295.67
2019-05-29T16:12:41.879Z,101286.08
2019-05-29T16:15:11.345Z,101295.81
2019-05-29T16:17:39.836Z,101292.96
2019-05-29T16:20:12.419Z,101286.31
2019-05-29T16:22:41.296Z,101279.55
2019-05-29T16:25:10.877Z,101282.67
2019-05-29T16:27:39.437Z,101279.89
2019-05-29T16:30:09.082Z,101275.41
2019-05-29T16:32:37.497Z,101279.86
2019-05-29T16:35:07.369Z,101282.87
2019-05-29T16:37:35.841Z,101276.46
2019-05-29T16:40:09.895Z,101275.31
2019-05-29T16:42:38.342Z,101275.61
2019-05-29T16:45:08.525Z,101275.65
2019-05-29T16:47:36.927Z,101273.16
2019-05-29T16:50:07.582Z,101266.25
2019-05-29T16:52:37.695Z,101271.06
2019-05-29T16:55:19.359Z,101265.24
2019-05-29T16:57:47.812Z,101266.75
2019-05-29T17:03:36.717Z,101270.38
2019-05-29T17:08:54.897Z,101267.19
2019-05-29T17:11:23.979Z,101266.36
2019-05-29T17:13:53.547Z,101261.66
2019-05-29T17:16:22.655Z,101266.64
2019-05-29T17:18:51.387Z,101262.48
2019-05-29T17:21:20.767Z,101263.93
2019-05-29T17:23:49.222Z,101268.03
2019-05-29T17:28:45.254Z,101263.56
2019-05-29T17:31:14.966Z,101268.57
2019-05-29T17:33:43.486Z,101266.25
2019-05-29T17:36:11.868Z,101268.66
2019-05-29T17:38:40.314Z,101264.80
2019-05-29T17:41:08.778Z,101264.84
2019-05-29T17:43:37.270Z,101268.50
2019-05-29T17:46:05.697Z,101273.05
2019-05-29T17:48:34.112Z,101277.60
2019-05-29T17:51:02.561Z,101278.54
2019-05-29T17:53:31.015Z,101281.59
2019-05-29T17:55:59.424Z,101290.08
2019-05-29T17:58:27.863Z,101295.39
2019-05-29T18:00:56.255Z,101298.73
2019-05-29T18:03:24.751Z,101305.08
2019-05-29T18:05:53.184Z,101302.55
2019-05-29T18:08:22.739Z,101296.19
2019-05-29T18:10:51.389Z,101299.16
2019-05-29T18:13:21.139Z,101298.82
2019-05-29T18:15:49.820Z,101298.55
2019-05-29T18:18:19.320Z,101300.14
2019-05-29T18:20:47.906Z,101296.88
2019-05-29T18:23:17.433Z,101304.95
2019-05-29T18:25:45.966Z,100843.05
2019-05-29T18:28:14.488Z,101312.11
2019-05-29T18:30:42.868Z,101310.07
2019-05-29T18:33:11.317Z,101305.31
2019-05-29T18:35:39.712Z,101300.20
2019-05-29T18:38:08.201Z,101296.75
2019-05-29T18:40:36.757Z,101298.61
2019-05-29T18:43:05.277Z,101299.13
2019-05-29T18:45:33.753Z,101297.09
2019-05-29T18:48:02.146Z,101293.36
2019-05-29T18:50:32.707Z,101294.78
2019-05-29T18:53:00.688Z,101297.48
2019-05-29T18:55:29.207Z,101299.38
2019-05-29T18:57:57.609Z,101292.98
2019-05-29T19:00:27.405Z,101294.86
2019-05-29T19:02:56.008Z,101300.14
2019-05-29T19:05:25.605Z,101303.25
2019-05-29T19:07:54.272Z,101306.42
2019-05-29T19:10:23.669Z,101305.63
2019-05-29T19:12:52.301Z,101307.88
2019-05-29T19:15:21.885Z,101313.58
2019-05-29T19:17:50.396Z,101305.47
2019-05-29T19:20:19.067Z,101312.58
2019-05-29T19:22:47.541Z,101318.69
2019-05-29T19:25:16.491Z,101311.86
2019-05-29T19:27:44.933Z,101314.91
2019-05-29T19:30:13.808Z,101318.90
2019-05-29T19:32:42.288Z,101322.38
2019-05-29T19:35:10.793Z,101322.13
2019-05-29T19:37:39.482Z,101332.94
2019-05-29T19:40:09.735Z,101334.41
2019-05-29T19:42:38.234Z,101332.24
2019-05-29T19:45:11.450Z,101340.11
2019-05-29T19:47:39.876Z,101344.12
2019-05-29T19:50:11.393Z,101348.91
2019-05-29T19:52:39.703Z,101343.41
2019-05-29T19:55:08.360Z,101349.47
2019-05-29T19:57:54.169Z,101352.00
2019-05-29T20:00:10.200Z,101357.55
2019-05-29T20:02:39.371Z,101352.80
2019-05-29T20:05:08.631Z,101349.76
2019-05-29T20:07:52.175Z,101358.45
2019-05-29T20:13:18.257Z,101363.70
2019-05-29T20:15:46.672Z,101365.44
2019-05-29T20:18:15.172Z,101368.01
2019-05-29T20:20:43.684Z,101368.50
2019-05-29T20:23:12.141Z,101371.09
2019-05-29T20:25:40.542Z,101370.66
2019-05-29T20:28:09.019Z,101368.06
2019-05-29T20:30:38.735Z,101371.52
2019-05-29T20:33:07.277Z,100881.62
2019-05-29T20:35:36.871Z,101369.84
2019-05-29T20:38:06.664Z,101373.74
2019-05-29T20:40:35.474Z,101375.89
2019-05-29T20:43:04.084Z,101370.73
2019-05-29T20:45:33.390Z,101372.89
2019-05-29T20:48:01.811Z,101371.16
2019-05-29T20:50:30.902Z,101367.72
2019-05-29T20:52:59.405Z,101371.56
2019-05-29T20:55:27.822Z,101365.56
2019-05-29T20:57:56.212Z,101365.98
2019-05-29T21:00:24.786Z,101370.25
2019-05-29T21:02:53.267Z,101372.36
2019-05-29T21:05:21.775Z,101364.19
2019-05-29T21:07:50.237Z,101370.67
2019-05-29T21:10:19.113Z,101366.38
2019-05-29T21:12:47.867Z,101373.69
2019-05-29T21:15:16.711Z,101374.08
2019-05-29T21:17:45.336Z,101378.38
2019-05-29T21:20:14.406Z,101382.25
2019-05-29T21:22:44.961Z,101382.25
2019-05-29T21:25:18.950Z,101389.99
2019-05-29T21:27:48.809Z,101383.97
2019-05-29T21:30:15.566Z,101385.70
2019-05-29T21:32:44.107Z,101380.09
2019-05-29T21:35:12.838Z,101384.34
2019-05-29T21:37:42.472Z,101383.86
2019-05-29T21:40:11.380Z,101381.62
2019-05-29T21:42:40.532Z,101379.44
2019-05-29T21:45:09.787Z,101384.61
2019-05-29T21:47:39.014Z,101031.20
2019-05-29T21:50:08.618Z,101383.65
2019-05-29T21:52:37.610Z,101386.66
2019-05-29T21:55:09.199Z,101389.17
2019-05-29T21:57:38.110Z,101389.23
2019-05-29T22:00:13.039Z,101390.08
2019-05-29T22:02:42.310Z,101393.42
2019-05-29T22:05:11.128Z,101396.45
2019-05-29T22:07:40.705Z,101389.59
2019-05-29T22:10:09.532Z,101386.50
2019-05-29T22:12:37.932Z,101384.83
2019-05-29T22:15:09.345Z,101383.98
2019-05-29T22:17:37.816Z,101387.85
2019-05-29T22:20:07.692Z,101380.95
2019-05-29T22:22:37.017Z,101377.37
2019-05-29T22:25:08.613Z,101377.31
2019-05-29T22:27:37.685Z,101381.16
2019-05-29T22:30:07.734Z,101382.23
2019-05-29T22:32:36.356Z,101381.02
2019-05-29T22:35:06.464Z,101374.92
2019-05-29T22:37:34.929Z,101376.59
2019-05-29T22:40:05.356Z,101372.62
2019-05-29T22:42:33.858Z,101378.67
2019-05-29T22:45:02.399Z,101379.33
2019-05-29T22:47:30.774Z,101380.33
2019-05-29T22:49:59.882Z,101358.45
2019-05-29T22:52:28.413Z,101374.71
2019-05-29T22:54:57.981Z,101376.37
2019-05-29T22:57:26.547Z,101370.76
2019-05-29T22:59:55.918Z,101371.97
2019-05-29T23:02:24.923Z,101371.84
2019-05-29T23:04:54.142Z,101367.59
2019-05-29T23:07:22.889Z,101368.54
2019-05-29T23:09:52.147Z,101372.81
2019-05-29T23:12:20.684Z,101366.70
2019-05-29T23:14:49.162Z,101365.01
2019-05-29T23:17:17.691Z,101365.75
2019-05-29T23:19:46.188Z,101367.30
2019-05-29T23:22:14.723Z,101369.88
2019-05-29T23:24:43.154Z,101373.75
2019-05-29T23:27:11.551Z,101366.83
2019-05-29T23:29:48.942Z,101370.70
2019-05-29T23:32:10.208Z,101373.70
2019-05-29T23:34:38.626Z,101377.74
2019-05-29T23:37:07.195Z,101372.61
2019-05-29T23:39:35.599Z,101373.93
2019-05-29T23:42:04.110Z,101371.38
2019-05-29T23:44:32.563Z,101374.88
2019-05-29T23:47:01.787Z,101368.98
2019-05-29T23:49:30.816Z,101368.58
2019-05-29T23:51:59.689Z,101365.68
2019-05-29T23:54:28.367Z,101363.20
2019-05-29T23:56:57.950Z,101362.45
2019-05-29T23:59:26.380Z,101358.62
